Time;durP1;ratioP1;P1;durP2;ratioP2;P2;SDS_P1;SDS_P2;PMS_P1;PMS_P2;Temp;Humidity;BMP_temperature;BMP_pressure;BME280_temperature;BME280_humidity;BME280_pressure;Samples;Min_cycle;Max_cycle;Signal;HPM_P1;HPM_P2
2022/09/15 00:01:48;;;;;;;15.23;7.45;;;15.80;83.70;;;;;;5073395;28;20029;-68
2022/09/15 00:04:14;;;;;;;13.63;7.30;;;15.80;83.80;;;;;;5074265;28;20033;-68
2022/09/15 00:06:40;;;;;;;14.40;6.60;;;15.80;83.80;;;;;;5074245;28;20043;-69
2022/09/15 00:09:05;;;;;;;14.25;7.85;;;15.80;83.90;;;;;;5072980;28;20057;-69
2022/09/15 00:11:33;;;;;;;12.75;7.13;;;15.80;83.90;;;;;;5074150;28;20025;-69
2022/09/15 00:14:01;;;;;;;14.68;7.45;;;15.80;84.10;;;;;;5074103;28;20021;-69
2022/09/15 00:16:29;;;;;;;13.75;7.35;;;15.80;84.20;;;;;;5073963;28;20032;-69
2022/09/15 00:18:56;;;;;;;11.48;6.63;;;15.80;84.40;;;;;;5073987;28;20017;-69
2022/09/15 00:21:25;;;;;;;14.32;8.02;;;15.80;84.50;;;;;;5073960;28;20029;-69
2022/09/15 00:23:51;;;;;;;18.60;6.95;;;15.80;84.70;;;;;;5073944;28;20024;-69
2022/09/15 00:26:20;;;;;;;12.73;6.70;;;15.80;84.70;;;;;;5073845;28;20035;-69
2022/09/15 00:28:47;;;;;;;15.15;7.85;;;15.80;84.50;;;;;;5073764;28;20053;-69
2022/09/15 00:31:15;;;;;;;13.88;6.97;;;15.80;84.50;;;;;;5072721;28;20025;-69
2022/09/15 00:33:41;;;;;;;16.77;7.15;;;15.90;84.30;;;;;;5073760;28;20096;-69
2022/09/15 00:36:10;;;;;;;17.50;7.22;;;15.90;84.00;;;;;;5073702;28;20021;-69
2022/09/15 00:38:36;;;;;;;17.65;7.63;;;15.90;84.00;;;;;;5073648;28;20021;-69
2022/09/15 00:41:04;;;;;;;16.02;7.05;;;15.90;84.00;;;;;;5072774;28;20029;-69
2022/09/15 00:43:43;;;;;;;14.95;7.90;;;15.90;84.00;;;;;;5073580;28;20032;-68
2022/09/15 00:46:10;;;;;;;17.17;7.68;;;16.00;84.30;;;;;;5073558;28;20028;-69
2022/09/15 00:48:40;;;;;;;15.13;7.45;;;16.00;84.30;;;;;;5073517;28;20029;-69
2022/09/15 00:51:07;;;;;;;16.50;7.32;;;16.00;84.60;;;;;;5073392;28;20021;-69
2022/09/15 00:53:34;;;;;;;20.13;7.75;;;16.00;84.50;;;;;;5073439;28;20100;-69
2022/09/15 00:56:01;;;;;;;13.32;7.93;;;16.00;84.50;;;;;;5073410;28;20029;-69
2022/09/15 00:58:38;;;;;;;16.45;8.25;;;16.00;84.70;;;;;;5073377;28;20021;-69
2022/09/15 01:01:07;;;;;;;14.23;7.55;;;16.00;84.70;;;;;;5073535;28;20029;-68
2022/09/15 01:03:34;;;;;;;15.02;7.70;;;16.00;84.90;;;;;;5073331;28;20031;-69
2022/09/15 01:06:26;;;;;;;15.50;7.68;;;16.00;84.90;;;;;;5073292;28;20025;-69
2022/09/15 01:09:03;;;;;;;17.38;8.07;;;16.00;84.80;;;;;;5073118;28;20052;-69
2022/09/15 01:11:30;;;;;;;15.48;7.65;;;16.00;85.10;;;;;;5073256;28;20119;-69
2022/09/15 01:13:55;;;;;;;15.20;8.48;;;16.00;85.10;;;;;;5073313;28;20036;-69
2022/09/15 01:16:38;;;;;;;18.27;8.73;;;15.90;85.20;;;;;;5072298;28;20033;-69
2022/09/15 01:19:10;;;;;;;17.23;7.55;;;15.90;85.40;;;;;;5073589;28;20033;-69
2022/09/15 01:21:47;;;;;;;14.30;7.57;;;15.90;85.50;;;;;;5079892;28;20044;-69
2022/09/15 01:24:49;;;;;;;16.42;8.25;;;15.90;85.50;;;;;;5079847;28;20052;-69
2022/09/15 01:27:50;;;;;;;15.70;8.07;;;15.90;85.50;;;;;;5079903;28;20044;-69
2022/09/15 01:30:21;;;;;;;17.13;8.27;;;15.90;86.00;;;;;;5078657;28;20025;-67
2022/09/15 01:33:02;;;;;;;17.50;8.52;;;15.90;86.50;;;;;;5079622;28;20021;-68
2022/09/15 01:35:43;;;;;;;22.88;8.63;;;15.90;86.60;;;;;;5079708;28;20044;-68
2022/09/15 01:38:14;;;;;;;14.25;7.43;;;16.00;86.60;;;;;;5079840;28;20024;-68
2022/09/15 01:41:05;;;;;;;21.77;9.02;;;16.00;86.40;;;;;;5078685;28;20029;-69
2022/09/15 01:43:34;;;;;;;17.55;8.23;;;16.10;86.30;;;;;;5079691;28;20028;-68
2022/09/15 01:46:01;;;;;;;17.15;8.10;;;16.10;86.00;;;;;;5079608;28;20051;-68
2022/09/15 01:48:30;;;;;;;17.63;8.05;;;16.10;85.90;;;;;;5079578;28;20044;-68
2022/09/15 01:50:59;;;;;;;19.10;8.43;;;16.10;85.90;;;;;;5079494;28;20385;-68
2022/09/15 01:53:25;;;;;;;17.13;8.43;;;16.10;85.90;;;;;;5079513;28;20017;-68
2022/09/15 01:56:00;;;;;;;20.38;8.60;;;16.20;85.70;;;;;;5078512;28;20028;-69
2022/09/15 01:58:25;;;;;;;16.63;8.27;;;16.20;85.70;;;;;;5079517;28;20030;-69
2022/09/15 02:01:00;;;;;;;16.27;8.02;;;16.20;85.60;;;;;;5078485;28;20025;-69
2022/09/15 02:03:36;;;;;;;16.50;9.43;;;16.20;85.60;;;;;;5079495;28;20047;-69
2022/09/15 02:06:09;;;;;;;16.15;8.18;;;16.30;85.30;;;;;;5079652;28;20051;-69
2022/09/15 02:08:57;;;;;;;;;;;16.20;85.20;;;;;;5079688;28;20068;-69
2022/09/15 02:11:26;;;;;;;15.65;7.72;;;16.10;85.20;;;;;;5073632;28;19961;-69
2022/09/15 02:14:02;;;;;;;14.15;7.90;;;16.10;85.30;;;;;;5079439;28;20075;-70
2022/09/15 02:16:33;;;;;;;18.70;8.20;;;16.10;85.60;;;;;;5079549;28;20025;-69
2022/09/15 02:19:34;;;;;;;19.20;8.43;;;16.00;85.60;;;;;;5079391;28;20024;-69
2022/09/15 02:22:21;;;;;;;14.23;7.72;;;16.10;85.60;;;;;;5057487;28;20037;-69
2022/09/15 02:24:55;;;;;;;14.63;8.10;;;16.10;85.60;;;;;;5077896;28;20040;-69
2022/09/15 02:27:26;;;;;;;14.65;8.05;;;16.10;85.60;;;;;;5078283;28;20027;-69
2022/09/15 02:29:54;;;;;;;17.85;7.50;;;16.10;85.60;;;;;;5079130;28;20027;-69
2022/09/15 02:32:22;;;;;;;16.85;7.70;;;16.10;85.60;;;;;;5074340;28;20465;-69
2022/09/15 02:34:50;;;;;;;19.08;8.80;;;16.10;85.60;;;;;;5076010;28;20025;-69
2022/09/15 02:37:18;;;;;;;17.75;8.55;;;16.10;85.90;;;;;;5075987;28;20025;-69
2022/09/15 02:39:50;;;;;;;19.45;7.82;;;16.10;86.10;;;;;;5075905;28;20029;-69
2022/09/15 02:42:26;;;;;;;;;;;16.10;86.20;;;;;;5075333;28;20025;-69
2022/09/15 02:44:52;;;;;;;14.85;7.22;;;16.00;86.10;;;;;;5075865;28;19905;-68
2022/09/15 02:47:18;;;;;;;15.88;7.75;;;16.00;86.20;;;;;;5075795;28;20092;-69
2022/09/15 02:49:43;;;;;;;14.82;7.70;;;15.90;87.00;;;;;;5075654;28;20033;-69
2022/09/15 02:52:09;;;;;;;14.07;6.85;;;16.00;86.20;;;;;;5075677;28;20048;-69
2022/09/15 02:54:35;;;;;;;13.30;7.85;;;16.00;86.00;;;;;;5075649;28;20024;-69
2022/09/15 02:57:00;;;;;;;14.73;7.75;;;16.00;85.60;;;;;;5075714;28;20028;-69
2022/09/15 03:00:11;;;;;;;15.05;8.50;;;16.00;85.60;;;;;;5075530;28;20071;-69
2022/09/15 03:02:12;;;;;;;14.63;7.68;;;16.00;85.60;;;;;;5075357;28;20163;-69
2022/09/15 03:04:38;;;;;;;15.90;7.55;;;15.90;85.50;;;;;;5074479;28;20045;-69
2022/09/15 03:07:04;;;;;;;14.80;7.35;;;16.00;85.60;;;;;;5075361;28;20040;-68
2022/09/15 03:09:30;;;;;;;14.32;7.60;;;15.90;85.40;;;;;;5075132;28;20068;-69
2022/09/15 03:11:55;;;;;;;15.30;7.70;;;15.90;85.50;;;;;;5074431;28;20389;-68
2022/09/15 03:14:21;;;;;;;15.40;7.30;;;15.90;85.50;;;;;;5075207;28;20029;-69
2022/09/15 03:16:47;;;;;;;16.35;7.13;;;15.90;85.50;;;;;;5075229;28;20025;-69
2022/09/15 03:19:12;;;;;;;17.20;8.10;;;15.90;85.30;;;;;;5075206;28;20104;-68
2022/09/15 03:21:38;;;;;;;14.35;7.05;;;15.90;85.20;;;;;;5075109;28;20033;-69
2022/09/15 03:24:04;;;;;;;14.35;7.32;;;16.00;85.10;;;;;;5074199;28;20044;-69
2022/09/15 03:26:29;;;;;;;13.95;7.35;;;16.00;84.80;;;;;;5074065;28;20029;-68
2022/09/15 03:28:55;;;;;;;15.63;7.47;;;15.90;84.80;;;;;;5074907;28;20027;-69
2022/09/15 03:31:21;;;;;;;11.88;6.82;;;15.90;84.90;;;;;;5074869;28;20036;-69
2022/09/15 03:33:47;;;;;;;14.32;7.65;;;15.90;85.00;;;;;;5074917;28;20079;-68
2022/09/15 03:36:13;;;;;;;14.00;7.32;;;15.80;85.10;;;;;;5074848;28;20032;-69
2022/09/15 03:38:39;;;;;;;12.85;7.80;;;15.80;86.00;;;;;;5074792;28;20084;-69
2022/09/15 03:41:10;;;;;;;13.20;7.50;;;15.90;85.20;;;;;;5074766;28;20040;-69
2022/09/15 03:43:37;;;;;;;15.52;8.50;;;15.80;85.50;;;;;;5074379;28;20029;-69
2022/09/15 03:46:06;;;;;;;14.82;7.97;;;15.80;85.50;;;;;;5074834;28;20024;-69
2022/09/15 03:48:34;;;;;;;14.27;7.00;;;15.80;85.50;;;;;;5074649;28;20032;-69
2022/09/15 03:51:00;;;;;;;12.05;7.35;;;15.90;85.50;;;;;;5074492;28;20029;-69
2022/09/15 03:53:26;;;;;;;13.75;7.72;;;15.90;85.40;;;;;;5073598;28;20025;-69
2022/09/15 03:55:52;;;;;;;11.60;6.75;;;15.90;85.20;;;;;;5074409;28;20032;-69
2022/09/15 03:58:18;;;;;;;12.93;6.90;;;15.90;85.10;;;;;;5074392;28;20037;-69
2022/09/15 04:00:44;;;;;;;13.07;7.68;;;16.00;85.00;;;;;;5074413;28;20037;-69
2022/09/15 04:03:11;;;;;;;12.70;7.30;;;16.00;85.10;;;;;;5074323;28;20025;-69
2022/09/15 04:05:37;;;;;;;14.13;7.18;;;16.00;85.10;;;;;;5074437;28;20040;-69
2022/09/15 04:08:03;;;;;;;16.52;8.23;;;16.10;85.00;;;;;;5074064;28;20041;-68
2022/09/15 04:10:29;;;;;;;13.02;6.78;;;16.10;84.90;;;;;;5073190;28;20053;-69
2022/09/15 04:12:55;;;;;;;18.88;8.07;;;16.10;84.80;;;;;;5074116;28;20033;-69
2022/09/15 04:15:21;;;;;;;14.27;6.97;;;16.10;84.70;;;;;;5073182;28;20031;-69
2022/09/15 04:17:47;;;;;;;13.63;6.93;;;16.20;84.70;;;;;;5074070;28;20048;-69
2022/09/15 04:20:13;;;;;;;11.98;7.00;;;16.20;84.60;;;;;;5074165;28;20028;-69
2022/09/15 04:22:39;;;;;;;11.48;6.50;;;16.10;84.50;;;;;;5074002;28;20028;-69
2022/09/15 04:25:05;;;;;;;13.60;6.85;;;16.20;84.60;;;;;;5073940;28;20057;-69
2022/09/15 04:27:34;;;;;;;12.05;6.75;;;16.10;84.70;;;;;;5073894;28;20025;-69
2022/09/15 04:30:00;;;;;;;13.13;6.88;;;16.10;84.60;;;;;;5073717;28;20040;-69
2022/09/15 04:32:28;;;;;;;13.57;6.75;;;16.20;84.40;;;;;;5073815;28;20060;-69
2022/09/15 04:34:54;;;;;;;12.23;7.15;;;16.20;84.20;;;;;;5073799;28;20032;-70
2022/09/15 04:37:20;;;;;;;12.25;6.95;;;16.10;84.40;;;;;;5073706;28;20059;-69
2022/09/15 04:39:46;;;;;;;11.38;6.55;;;16.10;84.30;;;;;;5072800;28;20108;-69
2022/09/15 04:42:12;;;;;;;13.35;7.30;;;16.10;84.50;;;;;;5073661;28;20021;-69
2022/09/15 04:44:37;;;;;;;10.63;6.35;;;16.10;84.50;;;;;;5073598;28;20029;-69
2022/09/15 04:47:03;;;;;;;12.65;6.32;;;16.10;84.50;;;;;;5073558;28;20464;-69
2022/09/15 04:49:30;;;;;;;11.63;6.63;;;16.10;84.70;;;;;;5073445;28;20033;-70
2022/09/15 04:51:55;;;;;;;13.90;6.30;;;16.10;84.80;;;;;;5073480;28;20017;-69
2022/09/15 04:54:21;;;;;;;11.27;6.88;;;16.00;84.90;;;;;;5072890;28;20048;-69
2022/09/15 04:56:47;;;;;;;12.00;6.85;;;16.00;85.10;;;;;;5073419;28;20036;-69
2022/09/15 04:59:15;;;;;;;13.45;7.05;;;16.00;85.10;;;;;;5073386;28;20053;-69
2022/09/15 05:01:41;;;;;;;10.65;6.63;;;15.90;85.40;;;;;;5073370;28;20017;-69
2022/09/15 05:04:08;;;;;;;14.63;7.07;;;16.00;85.40;;;;;;5073303;28;20047;-69
2022/09/15 05:06:35;;;;;;;13.05;6.43;;;16.00;85.30;;;;;;5073285;28;20021;-68
2022/09/15 05:09:02;;;;;;;12.57;6.78;;;16.00;85.10;;;;;;5073083;28;20052;-68
2022/09/15 05:11:29;;;;;;;15.68;6.72;;;16.00;85.30;;;;;;5073138;28;20029;-69
2022/09/15 05:13:55;;;;;;;14.10;6.45;;;16.10;85.10;;;;;;5073178;28;20018;-68
2022/09/15 05:16:23;;;;;;;13.73;6.72;;;16.10;84.60;;;;;;5073175;28;20017;-69
2022/09/15 05:18:50;;;;;;;11.20;6.95;;;16.10;84.40;;;;;;5073153;28;20443;-69
2022/09/15 05:21:18;;;;;;;12.45;6.55;;;16.10;84.30;;;;;;5072133;28;20029;-68
2022/09/15 05:23:45;;;;;;;12.10;6.32;;;16.10;84.20;;;;;;5072107;28;20028;-68
2022/09/15 05:26:14;;;;;;;13.70;6.78;;;16.00;84.20;;;;;;5073076;28;20085;-70
2022/09/15 05:28:40;;;;;;;12.30;6.63;;;16.00;84.30;;;;;;5073063;28;20032;-70
2022/09/15 05:31:10;;;;;;;11.63;6.35;;;16.00;84.60;;;;;;5073097;28;20029;-70
2022/09/15 05:33:36;;;;;;;10.57;6.65;;;15.90;85.00;;;;;;5072993;28;20036;-70
2022/09/15 05:36:02;;;;;;;13.68;7.03;;;15.90;84.90;;;;;;5073005;28;20045;-70
2022/09/15 05:38:29;;;;;;;14.77;7.15;;;15.90;85.20;;;;;;5072930;28;20088;-68
2022/09/15 05:41:06;;;;;;;12.13;6.47;;;15.80;85.40;;;;;;5072920;28;20047;-68
2022/09/15 05:43:34;;;;;;;15.88;7.50;;;15.80;85.40;;;;;;5072985;28;20021;-70
2022/09/15 05:46:00;;;;;;;13.70;6.93;;;15.80;85.50;;;;;;5072859;28;20025;-67
2022/09/15 05:48:26;;;;;;;11.10;6.50;;;15.80;85.60;;;;;;5072867;28;20025;-68
2022/09/15 05:50:54;;;;;;;11.13;6.43;;;15.80;85.80;;;;;;5072759;28;20041;-68
2022/09/15 05:53:20;;;;;;;14.75;6.97;;;15.80;86.00;;;;;;5072838;28;20021;-68
2022/09/15 05:55:46;;;;;;;14.98;6.47;;;15.80;86.00;;;;;;5072822;28;20395;-68
2022/09/15 05:58:12;;;;;;;13.98;7.60;;;15.80;86.00;;;;;;5072802;28;20033;-68
2022/09/15 06:00:40;;;;;;;11.98;6.75;;;15.90;85.90;;;;;;5072780;28;20033;-68
2022/09/15 06:03:07;;;;;;;14.23;7.43;;;15.90;85.90;;;;;;5072731;28;20055;-68
2022/09/15 06:05:32;;;;;;;12.45;7.00;;;15.90;85.70;;;;;;5073144;28;20021;-67
2022/09/15 06:07:58;;;;;;;12.82;6.80;;;16.00;85.60;;;;;;5076313;28;20049;-68
2022/09/15 06:10:24;;;;;;;12.73;6.82;;;16.00;85.60;;;;;;5076588;28;20089;-69
2022/09/15 06:12:53;;;;;;;11.95;6.68;;;16.00;85.60;;;;;;5076436;28;20017;-69
2022/09/15 06:15:20;;;;;;;12.10;6.72;;;16.00;85.70;;;;;;5075454;28;20025;-69
2022/09/15 06:17:45;;;;;;;15.20;6.90;;;16.00;85.70;;;;;;5076351;28;20073;-68
2022/09/15 06:20:11;;;;;;;14.98;6.45;;;16.10;85.50;;;;;;5076329;28;20051;-70
2022/09/15 06:22:37;;;;;;;13.20;7.07;;;16.10;85.30;;;;;;5076259;28;20029;-70
2022/09/15 06:25:04;;;;;;;10.82;6.53;;;16.10;85.20;;;;;;5076178;28;20025;-70
2022/09/15 06:27:29;;;;;;;16.23;7.20;;;16.10;85.50;;;;;;5075147;28;20033;-67
2022/09/15 06:29:55;;;;;;;13.52;7.90;;;16.10;85.40;;;;;;5075980;28;20036;-68
2022/09/15 06:32:21;;;;;;;13.70;6.75;;;16.20;85.40;;;;;;5076043;28;20029;-68
2022/09/15 06:34:46;;;;;;;9.52;6.15;;;16.20;85.40;;;;;;5076037;28;20025;-68
2022/09/15 06:37:12;;;;;;;10.85;6.63;;;16.20;85.40;;;;;;5076002;28;20036;-68
2022/09/15 06:39:38;;;;;;;9.50;5.70;;;16.20;85.40;;;;;;5075961;28;20038;-69
2022/09/15 06:42:04;;;;;;;12.68;6.50;;;16.30;85.20;;;;;;5075107;28;20033;-69
2022/09/15 06:44:30;;;;;;;14.60;6.35;;;16.30;85.30;;;;;;5075835;28;20042;-69
2022/09/15 06:46:56;;;;;;;12.32;7.00;;;16.30;85.30;;;;;;5075784;28;20037;-69
2022/09/15 06:49:22;;;;;;;12.65;6.93;;;16.30;86.30;;;;;;5075638;28;20100;-68
2022/09/15 06:51:47;;;;;;;14.40;7.35;;;16.40;85.50;;;;;;5075704;28;20028;-68
2022/09/15 06:54:17;;;;;;;11.90;7.07;;;16.40;85.30;;;;;;5075798;28;20025;-69
2022/09/15 06:56:42;;;;;;;12.45;6.65;;;16.40;85.30;;;;;;5075622;28;20022;-69
2022/09/15 06:59:11;;;;;;;15.15;7.25;;;16.40;85.30;;;;;;5075618;28;20081;-69
2022/09/15 07:01:37;;;;;;;13.43;7.03;;;16.40;85.30;;;;;;5075509;28;20354;-69
2022/09/15 07:04:05;;;;;;;12.25;7.10;;;16.50;85.40;;;;;;5075495;28;20068;-69
2022/09/15 07:06:32;;;;;;;13.77;7.40;;;16.50;85.30;;;;;;5075446;28;20024;-70
2022/09/15 07:08:59;;;;;;;11.90;6.15;;;16.50;85.20;;;;;;5075233;28;20113;-70
2022/09/15 07:11:25;;;;;;;13.13;6.65;;;16.50;85.20;;;;;;5075263;28;20479;-70
2022/09/15 07:13:51;;;;;;;10.05;5.93;;;16.60;85.40;;;;;;5075281;28;20044;-67
2022/09/15 07:16:17;;;;;;;12.07;5.25;;;16.60;85.20;;;;;;5075247;28;20024;-68
2022/09/15 07:18:44;;;;;;;8.95;5.40;;;16.60;85.00;;;;;;5074494;28;20051;-68
2022/09/15 07:21:12;;;;;;;12.23;5.60;;;16.60;84.80;;;;;;5075166;28;20028;-68
2022/09/15 07:23:38;;;;;;;10.73;5.50;;;16.70;84.60;;;;;;5075089;28;20024;-67
2022/09/15 07:26:06;;;;;;;7.75;4.78;;;16.70;84.50;;;;;;5075188;28;20053;-68
2022/09/15 07:28:33;;;;;;;14.98;5.03;;;16.70;84.20;;;;;;5074900;28;20048;-69
2022/09/15 07:30:58;;;;;;;10.55;4.53;;;16.60;84.20;;;;;;5074912;28;20081;-69
2022/09/15 07:33:24;;;;;;;6.03;3.90;;;16.70;84.10;;;;;;5074903;28;20428;-69
2022/09/15 07:35:50;;;;;;;11.20;4.68;;;16.70;84.10;;;;;;5074875;28;20017;-69
2022/09/15 07:38:15;;;;;;;8.75;4.32;;;16.80;84.00;;;;;;5074853;28;20028;-69
2022/09/15 07:40:41;;;;;;;7.88;3.95;;;16.80;83.70;;;;;;5074799;28;20103;-69
2022/09/15 07:43:06;;;;;;;7.80;3.92;;;16.80;83.60;;;;;;5074765;28;20022;-69
2022/09/15 07:45:34;;;;;;;5.78;3.70;;;16.80;83.20;;;;;;5073763;28;20037;-69
2022/09/15 07:48:00;;;;;;;8.00;4.03;;;16.90;83.20;;;;;;5074661;28;20025;-69
2022/09/15 07:50:25;;;;;;;7.82;3.35;;;16.90;83.10;;;;;;5073537;28;20036;-68
2022/09/15 07:52:55;;;;;;;7.97;3.60;;;16.90;82.70;;;;;;5074543;28;20024;-69
2022/09/15 07:55:20;;;;;;;8.63;3.20;;;17.00;82.70;;;;;;5074493;28;20017;-69
2022/09/15 07:57:46;;;;;;;5.50;3.72;;;17.00;82.60;;;;;;5074447;28;20045;-68
2022/09/15 08:00:13;;;;;;;10.68;3.67;;;17.00;82.70;;;;;;5074433;28;20033;-69
2022/09/15 08:02:39;;;;;;;6.20;3.45;;;17.10;82.70;;;;;;5074400;28;20029;-69
2022/09/15 08:05:05;;;;;;;5.93;3.20;;;17.10;82.50;;;;;;5074319;28;20039;-69
2022/09/15 08:07:31;;;;;;;5.65;3.00;;;17.20;82.10;;;;;;5074081;28;20150;-69
2022/09/15 08:09:57;;;;;;;5.65;2.90;;;17.10;81.40;;;;;;5074200;28;20033;-69
2022/09/15 08:12:22;;;;;;;7.25;3.63;;;17.10;81.40;;;;;;5074299;28;20049;-68
2022/09/15 08:14:48;;;;;;;6.68;3.20;;;17.10;81.30;;;;;;5074142;28;20056;-69
2022/09/15 08:17:13;;;;;;;9.73;3.13;;;17.20;81.40;;;;;;5074106;28;20028;-69
2022/09/15 08:19:39;;;;;;;5.55;3.30;;;17.20;81.50;;;;;;5073109;28;20112;-68
2022/09/15 08:22:04;;;;;;;8.23;3.78;;;17.20;81.40;;;;;;5073998;28;20029;-69
2022/09/15 08:24:30;;;;;;;6.10;3.35;;;17.20;81.20;;;;;;5073937;28;20084;-69
2022/09/15 08:26:56;;;;;;;7.82;3.63;;;17.20;81.50;;;;;;5072944;28;20032;-69
2022/09/15 08:29:22;;;;;;;9.73;3.95;;;17.30;80.70;;;;;;5071848;28;20035;-69
2022/09/15 08:31:48;;;;;;;8.02;3.70;;;17.30;80.60;;;;;;5073808;28;20024;-68
2022/09/15 08:34:15;;;;;;;8.90;3.67;;;17.30;80.10;;;;;;5073798;28;20017;-69
2022/09/15 08:36:41;;;;;;;8.63;3.97;;;17.30;79.60;;;;;;5056370;28;20029;-69
2022/09/15 08:39:07;;;;;;;6.97;3.20;;;17.40;79.60;;;;;;5073738;28;20028;-69
2022/09/15 08:41:43;;;;;;;7.65;3.20;;;17.40;79.40;;;;;;5073683;28;20036;-68
2022/09/15 08:44:37;;;;;;;21.00;3.97;;;17.40;78.30;;;;;;5073631;28;20027;-69
2022/09/15 08:47:14;;;;;;;6.65;3.22;;;17.50;78.60;;;;;;5073610;28;20052;-69
2022/09/15 08:49:49;;;;;;;9.95;3.83;;;17.50;78.60;;;;;;5073625;28;20542;-69
2022/09/15 08:52:27;;;;;;;4.97;2.92;;;17.50;78.70;;;;;;5073476;28;20028;-69
2022/09/15 08:54:56;;;;;;;7.88;3.28;;;17.50;78.10;;;;;;5073608;28;20027;-69
2022/09/15 08:57:24;;;;;;;6.80;3.30;;;17.60;78.20;;;;;;5073416;28;20013;-69
2022/09/15 08:59:50;;;;;;;4.68;3.30;;;17.60;78.10;;;;;;5073445;28;20091;-69
2022/09/15 09:02:25;;;;;;;7.22;3.70;;;17.70;78.20;;;;;;5073371;28;20035;-69
2022/09/15 09:05:06;;;;;;;10.35;3.53;;;17.70;78.20;;;;;;5073514;28;20029;-69
2022/09/15 09:07:41;;;;;;;7.70;3.40;;;17.80;78.00;;;;;;5072121;28;20024;-69
2022/09/15 09:10:13;;;;;;;7.43;3.30;;;17.80;78.00;;;;;;5073212;28;20159;-69
2022/09/15 09:13:08;;;;;;;7.35;2.70;;;17.80;77.80;;;;;;5072303;28;20029;-69
2022/09/15 09:15:52;;;;;;;6.68;2.30;;;17.90;77.10;;;;;;5073203;28;20024;-69
2022/09/15 09:18:21;;;;;;;5.43;2.38;;;17.90;76.50;;;;;;5073381;28;20019;-69
2022/09/15 09:20:59;;;;;;;4.32;2.20;;;17.90;76.40;;;;;;5073134;28;20049;-69
2022/09/15 09:23:28;;;;;;;7.32;2.63;;;17.90;76.40;;;;;;5073165;28;20029;-69
2022/09/15 09:25:55;;;;;;;5.75;2.58;;;17.90;76.20;;;;;;5073107;28;20084;-69
2022/09/15 09:28:33;;;;;;;6.32;2.35;;;17.90;75.90;;;;;;5073067;28;20025;-69
2022/09/15 09:31:05;;;;;;;7.50;2.58;;;17.90;75.70;;;;;;5071968;28;20089;-69
2022/09/15 09:33:40;;;;;;;5.70;2.65;;;17.90;76.20;;;;;;5073115;28;20081;-69
2022/09/15 09:36:09;;;;;;;5.30;2.47;;;17.90;75.90;;;;;;5073050;28;20040;-69
2022/09/15 09:38:38;;;;;;;5.40;2.42;;;17.90;76.20;;;;;;5071964;28;20025;-68
2022/09/15 09:41:16;;;;;;;9.02;2.20;;;18.00;76.30;;;;;;5074257;28;20025;-69
2022/09/15 09:43:45;;;;;;;4.47;2.10;;;18.00;76.00;;;;;;5077180;28;20036;-68
2022/09/15 09:46:18;;;;;;;5.30;2.28;;;17.90;75.80;;;;;;5076967;28;20021;-68
2022/09/15 09:48:59;;;;;;;5.95;2.28;;;18.00;75.90;;;;;;5076972;28;20025;-68
2022/09/15 09:51:32;;;;;;;8.35;2.50;;;17.90;75.80;;;;;;5076821;28;20040;-68
2022/09/15 09:54:14;;;;;;;5.97;2.30;;;17.90;75.80;;;;;;5076882;28;20076;-68
2022/09/15 09:56:42;;;;;;;5.47;1.85;;;17.90;75.60;;;;;;5076849;28;20040;-69
2022/09/15 09:59:38;;;;;;;3.10;1.80;;;17.90;75.70;;;;;;5076736;28;20479;-69
2022/09/15 10:02:04;;;;;;;6.35;2.00;;;18.00;75.70;;;;;;5076897;28;20032;-69
2022/09/15 10:04:30;;;;;;;6.65;1.70;;;18.00;75.50;;;;;;5076648;28;20052;-69
2022/09/15 10:06:55;;;;;;;4.57;1.70;;;18.00;75.30;;;;;;5076582;28;20029;-69
2022/09/15 10:09:21;;;;;;;4.72;1.50;;;18.00;74.80;;;;;;5076276;28;20049;-69
2022/09/15 10:11:54;;;;;;;3.75;1.58;;;18.00;74.90;;;;;;5076503;28;20058;-69
2022/09/15 10:14:37;;;;;;;4.68;1.60;;;18.10;74.70;;;;;;5075474;28;20021;-69
2022/09/15 10:17:19;;;;;;;6.65;1.55;;;18.10;74.80;;;;;;5076474;28;20051;-70
2022/09/15 10:19:48;;;;;;;5.50;1.70;;;18.20;74.90;;;;;;5076342;28;20025;-69
2022/09/15 10:22:34;;;;;;;3.28;1.65;;;18.20;74.90;;;;;;5076388;28;20338;-69
2022/09/15 10:25:02;;;;;;;4.38;1.40;;;18.30;74.30;;;;;;5075171;28;20061;-69
2022/09/15 10:27:31;;;;;;;4.82;1.65;;;18.20;73.90;;;;;;5076172;28;20029;-69
2022/09/15 10:30:12;;;;;;;3.33;1.50;;;18.30;73.50;;;;;;5076014;28;20077;-69
2022/09/15 10:32:39;;;;;;;5.13;1.38;;;18.40;72.40;;;;;;5076118;28;20024;-69
2022/09/15 10:35:14;;;;;;;5.07;1.20;;;18.50;72.50;;;;;;5076076;28;20035;-69
2022/09/15 10:38:07;;;;;;;4.00;1.25;;;18.60;71.80;;;;;;5076043;28;20017;-69
2022/09/15 10:40:43;;;;;;;3.30;0.90;;;18.70;72.00;;;;;;5076160;28;20045;-69
2022/09/15 10:43:38;;;;;;;5.22;1.10;;;18.70;71.90;;;;;;5076048;28;20040;-69
2022/09/15 10:46:12;;;;;;;4.35;1.05;;;18.60;71.00;;;;;;5076037;28;20052;-69
2022/09/15 10:49:06;;;;;;;4.47;0.90;;;18.50;71.80;;;;;;5074844;28;20045;-69
2022/09/15 10:51:57;;;;;;;4.05;0.75;;;18.30;71.10;;;;;;5075821;28;20080;-68
2022/09/15 10:54:44;;;;;;;8.75;1.13;;;18.20;72.10;;;;;;5075394;28;20025;-68
2022/09/15 10:57:15;;;;;;;1.25;0.60;;;18.10;72.70;;;;;;5075816;28;20021;-68
2022/09/15 10:59:44;;;;;;;2.05;0.63;;;18.00;73.20;;;;;;5075627;28;20025;-68
2022/09/15 11:02:25;;;;;;;1.85;0.70;;;17.90;73.50;;;;;;5075558;28;20017;-68
2022/09/15 11:04:51;;;;;;;2.55;0.73;;;17.90;73.90;;;;;;5075556;28;20021;-68
2022/09/15 11:07:53;;;;;;;6.03;0.70;;;17.80;73.90;;;;;;5074537;28;20037;-68
2022/09/15 11:10:47;;;;;;;2.80;0.68;;;17.80;74.20;;;;;;5075490;28;20083;-68
2022/09/15 11:13:34;;;;;;;4.00;0.65;;;17.80;73.70;;;;;;5075547;28;20072;-68
2022/09/15 11:16:23;;;;;;;3.92;0.73;;;17.80;74.20;;;;;;5075501;28;20029;-68
2022/09/15 11:19:10;;;;;;;1.58;0.85;;;17.70;74.90;;;;;;5075291;28;20017;-68
2022/09/15 11:21:46;;;;;;;2.75;1.00;;;17.70;74.30;;;;;;5075375;28;20028;-68
2022/09/15 11:24:21;;;;;;;7.78;0.90;;;17.70;74.50;;;;;;5075342;28;20048;-68
2022/09/15 11:26:59;;;;;;;4.22;1.15;;;17.70;74.80;;;;;;5075242;28;20031;-68
2022/09/15 11:29:41;;;;;;;4.20;0.90;;;17.70;73.20;;;;;;5075002;28;20033;-68
2022/09/15 11:32:14;;;;;;;3.67;0.80;;;17.80;73.50;;;;;;5075037;28;20041;-68
2022/09/15 11:34:57;;;;;;;2.92;0.57;;;17.80;73.50;;;;;;5074997;28;20082;-68
2022/09/15 11:37:33;;;;;;;3.58;0.95;;;17.70;72.90;;;;;;5074967;28;20025;-68
2022/09/15 11:40:13;;;;;;;5.25;0.80;;;17.80;73.00;;;;;;5074933;28;20025;-68
2022/09/15 11:42:51;;;;;;;3.83;0.60;;;17.70;72.70;;;;;;5074827;28;20037;-68
2022/09/15 11:45:27;;;;;;;2.25;0.80;;;17.70;73.00;;;;;;5074760;28;20108;-68
2022/09/15 11:48:03;;;;;;;3.45;0.80;;;17.80;73.40;;;;;;5074662;28;20052;-68
2022/09/15 11:50:33;;;;;;;2.85;0.85;;;17.80;73.20;;;;;;5074625;28;20028;-68
2022/09/15 11:53:07;;;;;;;1.98;0.70;;;17.80;73.60;;;;;;5074651;28;20491;-68
2022/09/15 11:55:46;;;;;;;1.40;0.60;;;17.90;73.40;;;;;;5074753;28;20511;-68
2022/09/15 11:58:17;;;;;;;2.30;0.75;;;18.00;72.10;;;;;;5074547;28;20076;-68
2022/09/15 12:01:09;;;;;;;2.35;0.95;;;18.10;71.40;;;;;;5074509;28;20021;-68
2022/09/15 12:03:43;;;;;;;2.13;0.80;;;18.20;71.70;;;;;;5074364;28;20435;-68
2022/09/15 12:06:30;;;;;;;3.22;0.98;;;18.50;71.80;;;;;;5074384;28;20115;-68
2022/09/15 12:09:16;;;;;;;3.40;0.90;;;18.70;70.10;;;;;;5074198;28;20124;-68
2022/09/15 12:11:55;;;;;;;4.18;0.90;;;18.80;69.30;;;;;;5074373;28;20049;-68
2022/09/15 12:14:20;;;;;;;3.67;0.90;;;18.90;69.70;;;;;;5074396;28;20017;-68
2022/09/15 12:16:47;;;;;;;3.92;0.60;;;19.00;68.30;;;;;;5074132;28;20032;-68
2022/09/15 12:19:24;;;;;;;2.15;0.75;;;19.00;67.10;;;;;;5074095;28;20035;-68
2022/09/15 12:22:00;;;;;;;3.28;0.80;;;19.10;68.10;;;;;;5073025;28;20025;-68
2022/09/15 12:24:38;;;;;;;3.13;1.30;;;19.20;67.80;;;;;;5074179;28;20013;-68
2022/09/15 12:27:04;;;;;;;2.03;0.70;;;19.20;67.20;;;;;;5073994;28;20021;-68
2022/09/15 12:29:38;;;;;;;4.40;1.00;;;19.40;68.00;;;;;;5073768;28;20048;-68
2022/09/15 12:32:19;;;;;;;2.30;0.60;;;19.50;67.00;;;;;;5073942;28;20051;-68
2022/09/15 12:35:24;;;;;;;5.10;0.90;;;19.50;65.30;;;;;;5073752;28;20056;-68
2022/09/15 12:37:57;;;;;;;5.35;1.00;;;19.60;67.10;;;;;;5072728;28;20044;-68
2022/09/15 12:40:33;;;;;;;6.18;1.40;;;19.70;65.60;;;;;;5073767;28;20024;-68
2022/09/15 12:43:12;;;;;;;4.82;1.48;;;19.70;65.70;;;;;;5073720;28;20039;-68
2022/09/15 12:45:42;;;;;;;4.13;1.20;;;19.70;64.80;;;;;;5073684;28;20032;-68
2022/09/15 12:48:14;;;;;;;4.15;1.45;;;19.80;65.60;;;;;;5073580;28;20025;-68
2022/09/15 12:50:42;;;;;;;2.85;1.27;;;19.80;65.30;;;;;;5073462;28;20028;-68
2022/09/15 12:53:21;;;;;;;2.22;1.00;;;19.90;64.60;;;;;;5073515;28;20020;-68
2022/09/15 12:56:06;;;;;;;4.60;1.13;;;20.00;64.10;;;;;;5073633;28;20025;-68
2022/09/15 12:58:43;;;;;;;4.85;1.05;;;20.20;65.00;;;;;;5072480;28;20093;-68
2022/09/15 13:01:18;;;;;;;4.78;0.98;;;20.40;64.20;;;;;;5073447;28;20025;-68